sensor_id;sensor_type;location;lat;lon;timestamp;temperature;humidity
23827;DHT22;12094;50.822;4.376;2022-08-26T00:01:54;21.90;99.90
23827;DHT22;12094;50.822;4.376;2022-08-26T00:04:22;21.80;99.90
23827;DHT22;12094;50.822;4.376;2022-08-26T00:06:54;21.70;99.90
23827;DHT22;12094;50.822;4.376;2022-08-26T00:09:22;21.60;99.90
23827;DHT22;12094;50.822;4.376;2022-08-26T00:11:51;21.60;99.90
23827;DHT22;12094;50.822;4.376;2022-08-26T00:14:21;21.60;99.90
23827;DHT22;12094;50.822;4.376;2022-08-26T00:16:55;21.70;99.90
23827;DHT22;12094;50.822;4.376;2022-08-26T00:19:23;21.70;99.90
23827;DHT22;12094;50.822;4.376;2022-08-26T00:21:50;21.70;99.90
23827;DHT22;12094;50.822;4.376;2022-08-26T00:24:19;21.70;99.90
23827;DHT22;12094;50.822;4.376;2022-08-26T00:26:47;21.80;99.90
23827;DHT22;12094;50.822;4.376;2022-08-26T00:29:15;21.70;99.90
23827;DHT22;12094;50.822;4.376;2022-08-26T00:31:43;21.70;99.90
23827;DHT22;12094;50.822;4.376;2022-08-26T00:34:11;21.70;99.90
23827;DHT22;12094;50.822;4.376;2022-08-26T00:36:42;21.70;99.90
23827;DHT22;12094;50.822;4.376;2022-08-26T00:39:09;21.70;99.90
23827;DHT22;12094;50.822;4.376;2022-08-26T00:41:38;21.60;99.90
23827;DHT22;12094;50.822;4.376;2022-08-26T00:44:06;21.60;99.90
23827;DHT22;12094;50.822;4.376;2022-08-26T00:46:40;21.60;99.90
23827;DHT22;12094;50.822;4.376;2022-08-26T00:49:16;21.60;99.90
23827;DHT22;12094;50.822;4.376;2022-08-26T00:51:50;21.50;99.90
23827;DHT22;12094;50.822;4.376;2022-08-26T00:54:22;21.40;99.90
23827;DHT22;12094;50.822;4.376;2022-08-26T00:57:03;21.40;99.90
23827;DHT22;12094;50.822;4.376;2022-08-26T00:59:44;21.40;99.90
23827;DHT22;12094;50.822;4.376;2022-08-26T01:02:11;21.40;99.90
23827;DHT22;12094;50.822;4.376;2022-08-26T01:04:58;21.40;99.90
23827;DHT22;12094;50.822;4.376;2022-08-26T01:07:28;21.40;99.90
23827;DHT22;12094;50.822;4.376;2022-08-26T01:09:58;21.20;99.90
23827;DHT22;12094;50.822;4.376;2022-08-26T01:12:28;21.20;99.90
23827;DHT22;12094;50.822;4.376;2022-08-26T01:14:57;21.10;99.90
23827;DHT22;12094;50.822;4.376;2022-08-26T01:17:24;21.10;99.90
23827;DHT22;12094;50.822;4.376;2022-08-26T01:20:03;21.20;99.90
23827;DHT22;12094;50.822;4.376;2022-08-26T01:22:58;21.30;99.90
23827;DHT22;12094;50.822;4.376;2022-08-26T01:25:32;21.30;99.90
23827;DHT22;12094;50.822;4.376;2022-08-26T01:28:04;21.30;99.90
23827;DHT22;12094;50.822;4.376;2022-08-26T01:30:32;21.30;99.90
23827;DHT22;12094;50.822;4.376;2022-08-26T01:33:02;21.20;99.90
23827;DHT22;12094;50.822;4.376;2022-08-26T01:35:30;21.20;99.90
23827;DHT22;12094;50.822;4.376;2022-08-26T01:38:01;21.10;99.90
23827;DHT22;12094;50.822;4.376;2022-08-26T01:40:31;21.00;99.90
23827;DHT22;12094;50.822;4.376;2022-08-26T01:43:00;21.10;99.90
23827;DHT22;12094;50.822;4.376;2022-08-26T01:45:29;21.10;99.90
23827;DHT22;12094;50.822;4.376;2022-08-26T01:47:58;21.00;99.90
23827;DHT22;12094;50.822;4.376;2022-08-26T01:50:31;21.10;99.90
23827;DHT22;12094;50.822;4.376;2022-08-26T01:53:06;21.00;99.90
23827;DHT22;12094;50.822;4.376;2022-08-26T01:55:36;21.00;99.90
23827;DHT22;12094;50.822;4.376;2022-08-26T01:58:10;21.00;99.90
23827;DHT22;12094;50.822;4.376;2022-08-26T02:00:39;21.00;99.90
23827;DHT22;12094;50.822;4.376;2022-08-26T02:03:10;21.10;99.90
23827;DHT22;12094;50.822;4.376;2022-08-26T02:05:55;21.10;99.90
23827;DHT22;12094;50.822;4.376;2022-08-26T02:08:36;21.00;99.90
23827;DHT22;12094;50.822;4.376;2022-08-26T02:11:05;21.10;99.90
23827;DHT22;12094;50.822;4.376;2022-08-26T02:13:37;21.00;99.90
23827;DHT22;12094;50.822;4.376;2022-08-26T02:16:06;21.00;99.90
23827;DHT22;12094;50.822;4.376;2022-08-26T02:18:37;21.00;99.90
23827;DHT22;12094;50.822;4.376;2022-08-26T02:21:06;21.10;99.90
23827;DHT22;12094;50.822;4.376;2022-08-26T02:23:36;21.10;99.90
23827;DHT22;12094;50.822;4.376;2022-08-26T02:26:14;21.00;99.90
23827;DHT22;12094;50.822;4.376;2022-08-26T02:31:51;21.00;99.90
23827;DHT22;12094;50.822;4.376;2022-08-26T02:34:21;20.90;99.90
23827;DHT22;12094;50.822;4.376;2022-08-26T02:36:49;20.90;99.90
23827;DHT22;12094;50.822;4.376;2022-08-26T02:39:16;21.00;99.90
23827;DHT22;12094;50.822;4.376;2022-08-26T02:41:48;21.00;99.90
23827;DHT22;12094;50.822;4.376;2022-08-26T02:44:15;21.00;99.90
23827;DHT22;12094;50.822;4.376;2022-08-26T02:46:42;20.90;99.90
23827;DHT22;12094;50.822;4.376;2022-08-26T02:49:16;20.90;99.90
23827;DHT22;12094;50.822;4.376;2022-08-26T02:51:43;20.80;99.90
23827;DHT22;12094;50.822;4.376;2022-08-26T02:54:10;20.80;99.90
23827;DHT22;12094;50.822;4.376;2022-08-26T02:56:38;20.80;99.90
23827;DHT22;12094;50.822;4.376;2022-08-26T02:59:05;20.70;99.90
23827;DHT22;12094;50.822;4.376;2022-08-26T03:01:34;20.60;99.90
23827;DHT22;12094;50.822;4.376;2022-08-26T03:04:04;20.60;99.90
23827;DHT22;12094;50.822;4.376;2022-08-26T03:06:32;20.70;99.90
23827;DHT22;12094;50.822;4.376;2022-08-26T03:09:00;20.80;99.90
23827;DHT22;12094;50.822;4.376;2022-08-26T03:11:27;20.70;99.90
23827;DHT22;12094;50.822;4.376;2022-08-26T03:13:58;20.70;99.90
23827;DHT22;12094;50.822;4.376;2022-08-26T03:16:36;20.60;99.90
23827;DHT22;12094;50.822;4.376;2022-08-26T03:19:06;20.70;99.90
23827;DHT22;12094;50.822;4.376;2022-08-26T03:21:35;20.70;99.90
23827;DHT22;12094;50.822;4.376;2022-08-26T03:24:04;20.60;99.90
23827;DHT22;12094;50.822;4.376;2022-08-26T03:26:31;20.60;99.90
23827;DHT22;12094;50.822;4.376;2022-08-26T03:28:58;20.50;99.90
23827;DHT22;12094;50.822;4.376;2022-08-26T03:31:43;20.60;99.90
23827;DHT22;12094;50.822;4.376;2022-08-26T03:34:14;20.60;99.90
23827;DHT22;12094;50.822;4.376;2022-08-26T03:36:42;20.50;99.90
23827;DHT22;12094;50.822;4.376;2022-08-26T03:39:10;20.50;99.90
23827;DHT22;12094;50.822;4.376;2022-08-26T03:41:38;20.60;99.90
23827;DHT22;12094;50.822;4.376;2022-08-26T03:44:07;20.50;99.90
23827;DHT22;12094;50.822;4.376;2022-08-26T03:46:35;20.60;99.90
23827;DHT22;12094;50.822;4.376;2022-08-26T03:49:04;20.60;99.90
23827;DHT22;12094;50.822;4.376;2022-08-26T03:51:33;20.60;99.90
23827;DHT22;12094;50.822;4.376;2022-08-26T03:54:05;20.60;99.90
23827;DHT22;12094;50.822;4.376;2022-08-26T03:56:35;20.70;99.90
23827;DHT22;12094;50.822;4.376;2022-08-26T03:59:03;20.70;99.90
23827;DHT22;12094;50.822;4.376;2022-08-26T04:01:33;20.70;99.90
23827;DHT22;12094;50.822;4.376;2022-08-26T04:04:00;20.70;99.90
23827;DHT22;12094;50.822;4.376;2022-08-26T04:06:37;20.60;99.90
23827;DHT22;12094;50.822;4.376;2022-08-26T04:09:18;20.70;99.90
23827;DHT22;12094;50.822;4.376;2022-08-26T04:11:45;20.80;99.90
23827;DHT22;12094;50.822;4.376;2022-08-26T04:14:18;20.70;99.90
23827;DHT22;12094;50.822;4.376;2022-08-26T04:16:46;20.80;99.90
23827;DHT22;12094;50.822;4.376;2022-08-26T04:19:15;20.70;99.90
23827;DHT22;12094;50.822;4.376;2022-08-26T04:21:43;20.80;99.90
23827;DHT22;12094;50.822;4.376;2022-08-26T04:24:13;20.70;99.90
23827;DHT22;12094;50.822;4.376;2022-08-26T04:26:42;20.60;99.90
23827;DHT22;12094;50.822;4.376;2022-08-26T04:29:21;20.60;99.90
23827;DHT22;12094;50.822;4.376;2022-08-26T04:31:53;20.60;99.90
23827;DHT22;12094;50.822;4.376;2022-08-26T04:34:25;20.50;99.90
23827;DHT22;12094;50.822;4.376;2022-08-26T04:36:54;20.40;99.90
23827;DHT22;12094;50.822;4.376;2022-08-26T04:39:25;20.40;99.90
23827;DHT22;12094;50.822;4.376;2022-08-26T04:41:54;20.40;99.90
23827;DHT22;12094;50.822;4.376;2022-08-26T04:44:26;20.50;99.90
23827;DHT22;12094;50.822;4.376;2022-08-26T04:46:56;20.50;99.90
23827;DHT22;12094;50.822;4.376;2022-08-26T04:49:24;20.50;99.90
23827;DHT22;12094;50.822;4.376;2022-08-26T04:51:53;20.60;99.90
23827;DHT22;12094;50.822;4.376;2022-08-26T04:54:21;20.60;99.90
23827;DHT22;12094;50.822;4.376;2022-08-26T04:56:50;20.70;99.90
23827;DHT22;12094;50.822;4.376;2022-08-26T04:59:18;20.70;99.90
23827;DHT22;12094;50.822;4.376;2022-08-26T05:01:50;20.70;99.90
23827;DHT22;12094;50.822;4.376;2022-08-26T05:04:18;20.70;99.90
23827;DHT22;12094;50.822;4.376;2022-08-26T05:06:46;20.70;99.90
23827;DHT22;12094;50.822;4.376;2022-08-26T05:09:15;20.60;99.90
23827;DHT22;12094;50.822;4.376;2022-08-26T05:11:45;20.60;99.90
23827;DHT22;12094;50.822;4.376;2022-08-26T05:14:20;20.60;99.90
23827;DHT22;12094;50.822;4.376;2022-08-26T05:16:48;20.60;99.90
23827;DHT22;12094;50.822;4.376;2022-08-26T05:19:17;20.60;99.90
23827;DHT22;12094;50.822;4.376;2022-08-26T05:21:46;20.60;99.90
23827;DHT22;12094;50.822;4.376;2022-08-26T05:24:16;20.70;99.90
23827;DHT22;12094;50.822;4.376;2022-08-26T05:26:43;20.60;99.90
23827;DHT22;12094;50.822;4.376;2022-08-26T05:29:11;20.60;99.90
23827;DHT22;12094;50.822;4.376;2022-08-26T05:31:37;20.60;99.90
23827;DHT22;12094;50.822;4.376;2022-08-26T05:34:07;20.70;99.90
23827;DHT22;12094;50.822;4.376;2022-08-26T05:36:35;20.70;99.90
23827;DHT22;12094;50.822;4.376;2022-08-26T05:39:04;20.80;99.90
23827;DHT22;12094;50.822;4.376;2022-08-26T05:41:34;20.80;99.90
23827;DHT22;12094;50.822;4.376;2022-08-26T05:44:05;20.80;99.90
23827;DHT22;12094;50.822;4.376;2022-08-26T05:46:33;20.70;99.90
23827;DHT22;12094;50.822;4.376;2022-08-26T05:49:05;20.70;99.90
23827;DHT22;12094;50.822;4.376;2022-08-26T05:51:39;20.70;99.90
23827;DHT22;12094;50.822;4.376;2022-08-26T05:54:06;20.70;99.90
23827;DHT22;12094;50.822;4.376;2022-08-26T05:56:36;20.70;99.90
23827;DHT22;12094;50.822;4.376;2022-08-26T05:59:05;20.70;99.90
23827;DHT22;12094;50.822;4.376;2022-08-26T06:01:41;20.70;99.90
23827;DHT22;12094;50.822;4.376;2022-08-26T06:04:10;20.60;99.90
23827;DHT22;12094;50.822;4.376;2022-08-26T06:06:39;20.60;99.90
23827;DHT22;12094;50.822;4.376;2022-08-26T06:09:09;20.50;99.90
23827;DHT22;12094;50.822;4.376;2022-08-26T06:11:38;20.50;99.90
23827;DHT22;12094;50.822;4.376;2022-08-26T06:14:08;20.50;99.90
23827;DHT22;12094;50.822;4.376;2022-08-26T06:16:38;20.60;99.90
23827;DHT22;12094;50.822;4.376;2022-08-26T06:19:08;20.70;99.90
23827;DHT22;12094;50.822;4.376;2022-08-26T06:21:39;20.70;99.90
23827;DHT22;12094;50.822;4.376;2022-08-26T06:24:09;20.70;99.90
23827;DHT22;12094;50.822;4.376;2022-08-26T06:27:01;20.60;99.90
23827;DHT22;12094;50.822;4.376;2022-08-26T06:29:31;20.70;99.90
23827;DHT22;12094;50.822;4.376;2022-08-26T06:32:01;20.60;99.90
23827;DHT22;12094;50.822;4.376;2022-08-26T06:34:31;20.70;99.90
23827;DHT22;12094;50.822;4.376;2022-08-26T06:37:00;20.70;99.90
23827;DHT22;12094;50.822;4.376;2022-08-26T06:39:33;20.80;99.90
23827;DHT22;12094;50.822;4.376;2022-08-26T06:42:01;20.90;99.90
23827;DHT22;12094;50.822;4.376;2022-08-26T06:44:32;21.00;99.90
23827;DHT22;12094;50.822;4.376;2022-08-26T06:47:00;21.20;99.90
23827;DHT22;12094;50.822;4.376;2022-08-26T06:49:27;21.20;99.90
23827;DHT22;12094;50.822;4.376;2022-08-26T06:51:57;21.20;99.90
23827;DHT22;12094;50.822;4.376;2022-08-26T06:54:26;21.30;99.90
23827;DHT22;12094;50.822;4.376;2022-08-26T06:56:54;21.20;99.90
23827;DHT22;12094;50.822;4.376;2022-08-26T06:59:23;21.30;99.90
23827;DHT22;12094;50.822;4.376;2022-08-26T07:01:50;21.20;99.90
23827;DHT22;12094;50.822;4.376;2022-08-26T07:04:20;21.20;99.90
23827;DHT22;12094;50.822;4.376;2022-08-26T07:06:50;21.20;99.90
23827;DHT22;12094;50.822;4.376;2022-08-26T07:09:23;21.10;99.90
23827;DHT22;12094;50.822;4.376;2022-08-26T07:11:52;21.10;99.90
23827;DHT22;12094;50.822;4.376;2022-08-26T07:14:22;21.10;99.90
23827;DHT22;12094;50.822;4.376;2022-08-26T07:16:52;21.10;99.90
23827;DHT22;12094;50.822;4.376;2022-08-26T07:19:21;21.20;99.90
23827;DHT22;12094;50.822;4.376;2022-08-26T07:22:00;21.20;99.90
23827;DHT22;12094;50.822;4.376;2022-08-26T07:24:30;21.30;99.90
23827;DHT22;12094;50.822;4.376;2022-08-26T07:27:03;21.30;99.90
23827;DHT22;12094;50.822;4.376;2022-08-26T07:29:31;21.40;99.90
23827;DHT22;12094;50.822;4.376;2022-08-26T07:31:59;21.40;99.90
23827;DHT22;12094;50.822;4.376;2022-08-26T07:34:27;21.40;99.90
23827;DHT22;12094;50.822;4.376;2022-08-26T07:36:55;21.40;99.90
23827;DHT22;12094;50.822;4.376;2022-08-26T07:39:25;21.40;99.90
23827;DHT22;12094;50.822;4.376;2022-08-26T07:41:52;21.30;99.90
23827;DHT22;12094;50.822;4.376;2022-08-26T07:44:19;21.20;99.90
23827;DHT22;12094;50.822;4.376;2022-08-26T07:46:46;21.20;99.90
23827;DHT22;12094;50.822;4.376;2022-08-26T07:49:20;21.10;99.90
23827;DHT22;12094;50.822;4.376;2022-08-26T07:51:49;21.20;99.90
23827;DHT22;12094;50.822;4.376;2022-08-26T07:54:17;21.40;99.90
23827;DHT22;12094;50.822;4.376;2022-08-26T07:56:45;21.40;99.90
23827;DHT22;12094;50.822;4.376;2022-08-26T07:59:15;21.50;99.90
23827;DHT22;12094;50.822;4.376;2022-08-26T08:01:43;21.50;99.90
23827;DHT22;12094;50.822;4.376;2022-08-26T08:04:13;21.50;99.90
23827;DHT22;12094;50.822;4.376;2022-08-26T08:06:40;21.60;99.90
23827;DHT22;12094;50.822;4.376;2022-08-26T08:09:12;21.70;99.90
23827;DHT22;12094;50.822;4.376;2022-08-26T08:11:43;21.80;99.90
23827;DHT22;12094;50.822;4.376;2022-08-26T08:14:11;21.70;99.90
23827;DHT22;12094;50.822;4.376;2022-08-26T08:16:38;21.70;99.90
23827;DHT22;12094;50.822;4.376;2022-08-26T08:19:13;21.50;99.90
23827;DHT22;12094;50.822;4.376;2022-08-26T08:21:41;21.50;99.90
23827;DHT22;12094;50.822;4.376;2022-08-26T08:24:09;21.50;99.90
23827;DHT22;12094;50.822;4.376;2022-08-26T08:26:36;21.60;99.90
23827;DHT22;12094;50.822;4.376;2022-08-26T08:29:05;21.50;99.90
23827;DHT22;12094;50.822;4.376;2022-08-26T08:31:35;21.60;99.90
23827;DHT22;12094;50.822;4.376;2022-08-26T08:34:23;21.60;99.90
23827;DHT22;12094;50.822;4.376;2022-08-26T08:36:53;21.70;99.90
23827;DHT22;12094;50.822;4.376;2022-08-26T08:39:20;21.60;99.90
23827;DHT22;12094;50.822;4.376;2022-08-26T08:44:40;21.80;99.90
23827;DHT22;12094;50.822;4.376;2022-08-26T08:49:52;21.90;99.90
23827;DHT22;12094;50.822;4.376;2022-08-26T08:52:32;21.90;99.90
23827;DHT22;12094;50.822;4.376;2022-08-26T08:55:05;21.90;99.90
23827;DHT22;12094;50.822;4.376;2022-08-26T08:57:57;21.80;99.90
23827;DHT22;12094;50.822;4.376;2022-08-26T09:00:38;21.80;99.90
23827;DHT22;12094;50.822;4.376;2022-08-26T09:05:53;21.70;99.90
23827;DHT22;12094;50.822;4.376;2022-08-26T09:08:24;21.70;99.90
23827;DHT22;12094;50.822;4.376;2022-08-26T09:10:58;21.70;99.90
23827;DHT22;12094;50.822;4.376;2022-08-26T09:13:26;21.80;99.90
23827;DHT22;12094;50.822;4.376;2022-08-26T09:16:14;21.90;99.90
23827;DHT22;12094;50.822;4.376;2022-08-26T09:21:53;22.10;99.90
23827;DHT22;12094;50.822;4.376;2022-08-26T09:24:22;22.10;99.90
23827;DHT22;12094;50.822;4.376;2022-08-26T09:26:54;22.20;99.90
23827;DHT22;12094;50.822;4.376;2022-08-26T09:29:35;22.10;99.90
23827;DHT22;12094;50.822;4.376;2022-08-26T09:32:21;22.10;99.90
23827;DHT22;12094;50.822;4.376;2022-08-26T09:37:38;22.10;99.90
23827;DHT22;12094;50.822;4.376;2022-08-26T09:40:28;22.10;99.90
23827;DHT22;12094;50.822;4.376;2022-08-26T09:43:13;22.20;99.90
23827;DHT22;12094;50.822;4.376;2022-08-26T09:46:16;22.20;99.90
23827;DHT22;12094;50.822;4.376;2022-08-26T09:48:40;22.30;99.90
23827;DHT22;12094;50.822;4.376;2022-08-26T09:53:58;22.40;99.90
23827;DHT22;12094;50.822;4.376;2022-08-26T09:58:55;22.60;99.90
23827;DHT22;12094;50.822;4.376;2022-08-26T10:01:42;22.60;99.90
23827;DHT22;12094;50.822;4.376;2022-08-26T10:04:21;22.60;99.90
23827;DHT22;12094;50.822;4.376;2022-08-26T10:07:00;22.70;99.90
23827;DHT22;12094;50.822;4.376;2022-08-26T10:09:28;22.70;99.90
23827;DHT22;12094;50.822;4.376;2022-08-26T10:12:03;23.00;99.90
23827;DHT22;12094;50.822;4.376;2022-08-26T10:14:41;23.10;99.90
23827;DHT22;12094;50.822;4.376;2022-08-26T10:20:22;22.90;99.90
23827;DHT22;12094;50.822;4.376;2022-08-26T10:23:15;22.90;99.90
23827;DHT22;12094;50.822;4.376;2022-08-26T10:25:57;23.20;99.90
23827;DHT22;12094;50.822;4.376;2022-08-26T10:28:53;23.30;99.90
23827;DHT22;12094;50.822;4.376;2022-08-26T10:31:39;23.40;99.90
23827;DHT22;12094;50.822;4.376;2022-08-26T10:34:09;23.30;99.90
23827;DHT22;12094;50.822;4.376;2022-08-26T10:37:07;23.40;99.90
23827;DHT22;12094;50.822;4.376;2022-08-26T10:40:02;23.40;99.90
23827;DHT22;12094;50.822;4.376;2022-08-26T10:42:37;23.40;99.90
23827;DHT22;12094;50.822;4.376;2022-08-26T10:45:11;23.40;99.90
23827;DHT22;12094;50.822;4.376;2022-08-26T10:48:04;23.30;99.90
23827;DHT22;12094;50.822;4.376;2022-08-26T10:50:38;23.30;99.90
23827;DHT22;12094;50.822;4.376;2022-08-26T10:55:59;23.40;99.90
23827;DHT22;12094;50.822;4.376;2022-08-26T11:01:43;23.60;99.90
23827;DHT22;12094;50.822;4.376;2022-08-26T11:04:53;23.90;99.90
23827;DHT22;12094;50.822;4.376;2022-08-26T11:07:35;23.90;99.90
23827;DHT22;12094;50.822;4.376;2022-08-26T11:13:04;24.20;99.90
23827;DHT22;12094;50.822;4.376;2022-08-26T11:18:08;24.10;99.90
23827;DHT22;12094;50.822;4.376;2022-08-26T11:20:40;24.20;99.90
23827;DHT22;12094;50.822;4.376;2022-08-26T11:28:47;24.60;99.90
23827;DHT22;12094;50.822;4.376;2022-08-26T11:34:02;25.00;99.90
23827;DHT22;12094;50.822;4.376;2022-08-26T11:39:25;25.30;99.90
23827;DHT22;12094;50.822;4.376;2022-08-26T11:42:02;25.40;99.90
23827;DHT22;12094;50.822;4.376;2022-08-26T11:44:40;25.60;99.90
23827;DHT22;12094;50.822;4.376;2022-08-26T11:47:26;25.60;99.90
23827;DHT22;12094;50.822;4.376;2022-08-26T11:50:27;25.60;99.90
23827;DHT22;12094;50.822;4.376;2022-08-26T11:53:01;25.70;99.90
23827;DHT22;12094;50.822;4.376;2022-08-26T11:55:35;25.60;99.90
23827;DHT22;12094;50.822;4.376;2022-08-26T11:58:10;25.20;99.90
23827;DHT22;12094;50.822;4.376;2022-08-26T12:00:56;25.10;99.90
23827;DHT22;12094;50.822;4.376;2022-08-26T12:03:40;25.10;99.90
23827;DHT22;12094;50.822;4.376;2022-08-26T12:06:35;25.20;99.90
23827;DHT22;12094;50.822;4.376;2022-08-26T12:09:28;25.30;99.90
23827;DHT22;12094;50.822;4.376;2022-08-26T12:12:14;25.60;99.90
23827;DHT22;12094;50.822;4.376;2022-08-26T12:14:42;25.70;99.90
23827;DHT22;12094;50.822;4.376;2022-08-26T12:17:25;25.50;99.90
23827;DHT22;12094;50.822;4.376;2022-08-26T12:19:52;25.50;99.90
23827;DHT22;12094;50.822;4.376;2022-08-26T12:22:28;25.60;99.90
23827;DHT22;12094;50.822;4.376;2022-08-26T12:25:00;25.80;99.90
23827;DHT22;12094;50.822;4.376;2022-08-26T12:27:37;26.10;99.90
23827;DHT22;12094;50.822;4.376;2022-08-26T12:30:14;26.00;99.90
23827;DHT22;12094;50.822;4.376;2022-08-26T12:32:47;26.00;99.90
23827;DHT22;12094;50.822;4.376;2022-08-26T12:35:24;25.80;99.90
23827;DHT22;12094;50.822;4.376;2022-08-26T12:37:53;25.70;99.90
23827;DHT22;12094;50.822;4.376;2022-08-26T12:42:51;25.90;99.90
23827;DHT22;12094;50.822;4.376;2022-08-26T12:45:41;25.80;99.90
23827;DHT22;12094;50.822;4.376;2022-08-26T12:48:19;25.80;99.90
23827;DHT22;12094;50.822;4.376;2022-08-26T12:50:50;25.80;99.90
23827;DHT22;12094;50.822;4.376;2022-08-26T12:53:26;25.80;99.90
23827;DHT22;12094;50.822;4.376;2022-08-26T12:58:31;26.80;99.90
23827;DHT22;12094;50.822;4.376;2022-08-26T13:03:39;28.00;99.90
23827;DHT22;12094;50.822;4.376;2022-08-26T13:06:23;28.60;99.90
23827;DHT22;12094;50.822;4.376;2022-08-26T13:14:10;28.20;99.90
23827;DHT22;12094;50.822;4.376;2022-08-26T13:16:44;27.70;99.90
23827;DHT22;12094;50.822;4.376;2022-08-26T13:19:15;26.90;99.90
23827;DHT22;12094;50.822;4.376;2022-08-26T13:24:18;26.10;99.90
23827;DHT22;12094;50.822;4.376;2022-08-26T13:26:47;25.80;99.90
23827;DHT22;12094;50.822;4.376;2022-08-26T13:29:15;25.40;99.90
23827;DHT22;12094;50.822;4.376;2022-08-26T13:31:42;25.10;99.90
23827;DHT22;12094;50.822;4.376;2022-08-26T13:34:14;24.80;99.90
23827;DHT22;12094;50.822;4.376;2022-08-26T13:36:41;24.80;99.90
23827;DHT22;12094;50.822;4.376;2022-08-26T13:39:12;24.80;99.90
23827;DHT22;12094;50.822;4.376;2022-08-26T13:41:39;25.00;99.90
23827;DHT22;12094;50.822;4.376;2022-08-26T13:44:06;24.90;99.90
23827;DHT22;12094;50.822;4.376;2022-08-26T13:46:33;24.80;99.90
23827;DHT22;12094;50.822;4.376;2022-08-26T13:49:00;24.80;99.90
23827;DHT22;12094;50.822;4.376;2022-08-26T13:51:30;24.90;99.90
23827;DHT22;12094;50.822;4.376;2022-08-26T13:53:58;24.90;99.90
23827;DHT22;12094;50.822;4.376;2022-08-26T13:56:27;25.00;99.90
23827;DHT22;12094;50.822;4.376;2022-08-26T13:58:57;25.20;99.90
23827;DHT22;12094;50.822;4.376;2022-08-26T14:01:26;25.00;99.90
23827;DHT22;12094;50.822;4.376;2022-08-26T14:03:53;25.00;99.90
23827;DHT22;12094;50.822;4.376;2022-08-26T14:06:20;25.30;99.90
23827;DHT22;12094;50.822;4.376;2022-08-26T14:08:47;25.60;99.90
23827;DHT22;12094;50.822;4.376;2022-08-26T14:11:15;26.10;99.90
23827;DHT22;12094;50.822;4.376;2022-08-26T14:13:42;26.30;99.90
23827;DHT22;12094;50.822;4.376;2022-08-26T14:16:11;26.00;99.90
23827;DHT22;12094;50.822;4.376;2022-08-26T14:18:41;25.80;99.90
23827;DHT22;12094;50.822;4.376;2022-08-26T14:21:18;25.60;99.90
23827;DHT22;12094;50.822;4.376;2022-08-26T14:23:47;25.50;99.90
23827;DHT22;12094;50.822;4.376;2022-08-26T14:26:15;25.40;99.90
23827;DHT22;12094;50.822;4.376;2022-08-26T14:28:56;25.50;99.90
23827;DHT22;12094;50.822;4.376;2022-08-26T14:31:27;25.60;99.90
23827;DHT22;12094;50.822;4.376;2022-08-26T14:33:57;25.60;99.90
23827;DHT22;12094;50.822;4.376;2022-08-26T14:36:25;25.70;99.90
23827;DHT22;12094;50.822;4.376;2022-08-26T14:38:56;25.70;99.90
23827;DHT22;12094;50.822;4.376;2022-08-26T14:41:26;25.70;99.90
23827;DHT22;12094;50.822;4.376;2022-08-26T14:43:57;25.70;99.90
23827;DHT22;12094;50.822;4.376;2022-08-26T14:46:31;25.80;99.90
23827;DHT22;12094;50.822;4.376;2022-08-26T14:49:00;25.70;99.90
23827;DHT22;12094;50.822;4.376;2022-08-26T14:51:30;25.70;99.90
23827;DHT22;12094;50.822;4.376;2022-08-26T14:53:58;25.60;99.90
23827;DHT22;12094;50.822;4.376;2022-08-26T14:57:01;25.40;99.90
23827;DHT22;12094;50.822;4.376;2022-08-26T14:59:35;25.30;99.90
23827;DHT22;12094;50.822;4.376;2022-08-26T15:02:04;25.10;99.90
23827;DHT22;12094;50.822;4.376;2022-08-26T15:04:32;25.00;99.90
23827;DHT22;12094;50.822;4.376;2022-08-26T15:07:00;25.00;99.90
23827;DHT22;12094;50.822;4.376;2022-08-26T15:09:29;25.10;99.90
23827;DHT22;12094;50.822;4.376;2022-08-26T15:11:57;25.20;99.90
23827;DHT22;12094;50.822;4.376;2022-08-26T15:14:25;25.10;99.90
23827;DHT22;12094;50.822;4.376;2022-08-26T15:16:58;24.90;99.90
23827;DHT22;12094;50.822;4.376;2022-08-26T15:19:25;25.00;99.90
23827;DHT22;12094;50.822;4.376;2022-08-26T15:21:53;24.90;99.90
23827;DHT22;12094;50.822;4.376;2022-08-26T15:24:23;24.90;99.90
23827;DHT22;12094;50.822;4.376;2022-08-26T15:26:54;24.90;99.90
23827;DHT22;12094;50.822;4.376;2022-08-26T15:29:21;24.90;99.90
23827;DHT22;12094;50.822;4.376;2022-08-26T15:31:49;24.80;99.90
23827;DHT22;12094;50.822;4.376;2022-08-26T15:34:18;24.90;99.90
23827;DHT22;12094;50.822;4.376;2022-08-26T15:36:47;24.90;99.90
23827;DHT22;12094;50.822;4.376;2022-08-26T15:39:15;24.90;99.90
23827;DHT22;12094;50.822;4.376;2022-08-26T15:41:43;25.10;99.90
23827;DHT22;12094;50.822;4.376;2022-08-26T15:44:11;24.90;99.90
23827;DHT22;12094;50.822;4.376;2022-08-26T15:46:39;24.80;99.90
23827;DHT22;12094;50.822;4.376;2022-08-26T15:49:07;24.80;99.90
23827;DHT22;12094;50.822;4.376;2022-08-26T15:51:43;24.90;99.90
23827;DHT22;12094;50.822;4.376;2022-08-26T15:54:13;24.80;99.90
23827;DHT22;12094;50.822;4.376;2022-08-26T15:56:43;24.80;99.90
23827;DHT22;12094;50.822;4.376;2022-08-26T15:59:14;24.70;99.90
23827;DHT22;12094;50.822;4.376;2022-08-26T16:01:43;24.70;99.90
23827;DHT22;12094;50.822;4.376;2022-08-26T16:04:10;24.70;99.90
23827;DHT22;12094;50.822;4.376;2022-08-26T16:06:39;24.60;99.90
23827;DHT22;12094;50.822;4.376;2022-08-26T16:09:06;24.60;99.90
23827;DHT22;12094;50.822;4.376;2022-08-26T16:11:34;24.50;99.90
23827;DHT22;12094;50.822;4.376;2022-08-26T16:14:03;24.40;99.90
23827;DHT22;12094;50.822;4.376;2022-08-26T16:16:31;24.30;99.90
23827;DHT22;12094;50.822;4.376;2022-08-26T16:18:58;24.30;99.90
23827;DHT22;12094;50.822;4.376;2022-08-26T16:21:34;24.40;99.90
23827;DHT22;12094;50.822;4.376;2022-08-26T16:24:01;24.50;99.90
23827;DHT22;12094;50.822;4.376;2022-08-26T16:26:34;24.30;99.90
23827;DHT22;12094;50.822;4.376;2022-08-26T16:29:05;24.30;99.90
23827;DHT22;12094;50.822;4.376;2022-08-26T16:31:32;24.20;99.90
23827;DHT22;12094;50.822;4.376;2022-08-26T16:34:02;24.20;99.90
23827;DHT22;12094;50.822;4.376;2022-08-26T16:36:30;24.20;99.90
23827;DHT22;12094;50.822;4.376;2022-08-26T16:38:57;24.10;99.90
23827;DHT22;12094;50.822;4.376;2022-08-26T16:41:29;24.10;99.90
23827;DHT22;12094;50.822;4.376;2022-08-26T16:43:57;24.20;99.90
23827;DHT22;12094;50.822;4.376;2022-08-26T16:46:25;24.00;99.90
23827;DHT22;12094;50.822;4.376;2022-08-26T16:48:53;23.90;99.90
23827;DHT22;12094;50.822;4.376;2022-08-26T16:51:22;23.90;99.90
23827;DHT22;12094;50.822;4.376;2022-08-26T16:53:50;23.90;99.90
23827;DHT22;12094;50.822;4.376;2022-08-26T16:56:24;23.70;99.90
23827;DHT22;12094;50.822;4.376;2022-08-26T16:59:02;23.70;99.90
23827;DHT22;12094;50.822;4.376;2022-08-26T17:01:29;23.60;99.90
23827;DHT22;12094;50.822;4.376;2022-08-26T17:03:57;23.50;99.90